createdAt,value
2023-03-22T00:12:52.319Z,327.50
2023-03-22T00:27:55.844Z,39.10
2023-03-22T00:42:59.190Z,38.80
2023-03-22T00:58:04.295Z,38.60
2023-03-22T01:13:08.474Z,32.10
2023-03-22T01:28:11.756Z,36.00
2023-03-22T01:43:17.488Z,33.80
2023-03-22T01:58:21.418Z,32.90
2023-03-22T02:13:59.260Z,29.90
2023-03-22T02:29:46.571Z,34.10
2023-03-22T02:45:11.571Z,29.30
2023-03-22T03:00:18.817Z,34.70
2023-03-22T03:15:23.956Z,41.10
2023-03-22T03:30:41.022Z,38.10
2023-03-22T03:45:44.935Z,38.60
2023-03-22T04:00:49.588Z,49.00
2023-03-22T04:16:11.456Z,39.40
2023-03-22T04:31:14.833Z,42.70
2023-03-22T04:46:25.987Z,46.40
2023-03-22T05:01:36.080Z,45.90
2023-03-22T05:16:46.629Z,48.50
2023-03-22T05:31:50.068Z,49.70
2023-03-22T05:46:53.652Z,52.40
2023-03-22T06:02:08.692Z,54.40
2023-03-22T06:17:12.285Z,42.80
2023-03-22T06:32:17.143Z,47.10
2023-03-22T06:47:20.808Z,61.40
2023-03-22T07:02:32.562Z,90.70
2023-03-22T07:17:50.919Z,66.30
2023-03-22T07:32:54.211Z,72.40
2023-03-22T07:47:57.660Z,76.50
2023-03-22T08:03:22.429Z,65.60
2023-03-22T08:18:34.263Z,90.00
2023-03-22T08:33:37.851Z,86.90
2023-03-22T08:48:41.852Z,81.90
2023-03-22T09:03:51.315Z,91.90
2023-03-22T09:18:54.986Z,85.50
2023-03-22T09:33:59.102Z,103.60
2023-03-22T09:49:08.129Z,104.10
2023-03-22T10:04:34.849Z,96.50
2023-03-22T10:20:00.303Z,115.70
2023-03-22T10:35:03.871Z,97.40
2023-03-22T10:50:24.250Z,107.70
2023-03-22T11:05:30.425Z,128.90
2023-03-22T11:20:35.087Z,195.70
2023-03-22T11:35:39.995Z,119.10
2023-03-22T11:50:45.049Z,123.90
2023-03-22T12:05:52.550Z,98.40
2023-03-22T12:20:58.542Z,119.70
2023-03-22T12:36:07.252Z,103.00
2023-03-22T13:06:55.103Z,82.20
2023-03-22T13:22:19.447Z,62.20
2023-03-22T13:37:46.172Z,60.30
2023-03-22T13:53:08.187Z,60.60
2023-03-22T14:08:21.868Z,62.20
